createdAt,value
2022-11-27T08:38:31.920Z,5.05
2022-11-27T08:41:17.751Z,4.40
2022-11-27T08:44:06.775Z,3.38
2022-11-27T08:46:54.822Z,2.00
2022-11-27T08:49:44.873Z,1.80
2022-11-27T08:52:32.096Z,2.17
2022-11-27T08:55:17.508Z,2.72
2022-11-27T08:58:03.899Z,2.13
2022-11-27T09:00:49.747Z,1.80
2022-11-27T09:03:35.798Z,1.95
2022-11-27T09:06:24.558Z,1.85
2022-11-27T09:09:10.125Z,1.87
2022-11-27T09:11:55.738Z,2.00
2022-11-27T09:14:41.906Z,1.88
2022-11-27T09:17:27.507Z,1.70
2022-11-27T09:20:14.445Z,2.03
2022-11-27T09:23:02.408Z,2.10
2022-11-27T09:25:49.630Z,2.00
2022-11-27T09:28:36.476Z,1.83
2022-11-27T09:31:22.930Z,1.80
2022-11-27T09:34:08.722Z,1.67
2022-11-27T09:36:54.093Z,1.90
2022-11-27T09:39:39.848Z,2.08
2022-11-27T09:42:39.954Z,1.92
2022-11-27T09:45:27.024Z,2.28
2022-11-27T09:48:18.816Z,1.98
2022-11-27T09:51:11.685Z,1.83
2022-11-27T09:54:46.753Z,1.80
2022-11-27T09:57:38.391Z,2.05
2022-11-27T10:00:24.046Z,1.60
2022-11-27T10:03:14.891Z,1.85
2022-11-27T10:06:24.027Z,2.00
2022-11-27T10:09:23.530Z,2.28
2022-11-27T10:12:45.195Z,1.85
2022-11-27T10:15:48.696Z,1.67
2022-11-27T10:18:47.918Z,1.83
2022-11-27T10:21:52.446Z,2.00
2022-11-27T10:24:56.255Z,2.10
2022-11-27T10:27:51.859Z,2.15
2022-11-27T10:30:43.683Z,1.70
2022-11-27T10:33:42.371Z,2.10
2022-11-27T10:36:41.430Z,1.73
2022-11-27T10:39:41.158Z,1.80
2022-11-27T10:42:41.439Z,1.83
2022-11-27T10:45:46.335Z,1.77
2022-11-27T10:48:33.357Z,2.28
2022-11-27T10:51:22.833Z,1.83
2022-11-27T10:54:21.987Z,2.00
2022-11-27T10:57:22.279Z,1.80
2022-11-27T11:00:24.906Z,2.15
2022-11-27T11:03:17.403Z,1.50
2022-11-27T11:06:22.239Z,1.95
2022-11-27T11:09:17.546Z,2.22
2022-11-27T11:12:16.827Z,1.70
2022-11-27T11:15:02.669Z,1.87
2022-11-27T11:17:48.411Z,1.80
2022-11-27T11:20:34.085Z,1.80
2022-11-27T11:23:27.158Z,1.75
2022-11-27T11:26:29.840Z,2.22
2022-11-27T11:29:35.304Z,1.83
2022-11-27T11:32:20.661Z,1.58
2022-11-27T11:35:23.666Z,1.85
2022-11-27T11:38:16.979Z,1.77
2022-11-27T11:41:06.217Z,1.58
2022-11-27T11:43:59.182Z,1.50
2022-11-27T11:46:51.702Z,1.80
2022-11-27T11:49:37.536Z,1.90
2022-11-27T11:52:38.950Z,1.90
2022-11-27T11:55:47.301Z,1.75
2022-11-27T11:58:57.106Z,1.83
2022-11-27T12:02:19.546Z,1.80
2022-11-27T12:05:36.884Z,1.70
2022-11-27T12:08:35.303Z,1.88
2022-11-27T12:11:59.530Z,2.08
2022-11-27T12:14:52.515Z,1.43
2022-11-27T12:17:54.951Z,1.98
2022-11-27T12:20:46.009Z,1.33
2022-11-27T12:23:40.595Z,1.65
2022-11-27T12:26:32.626Z,1.95
2022-11-27T12:29:48.923Z,2.80
2022-11-27T12:32:55.907Z,2.22
2022-11-27T12:35:41.799Z,2.00
2022-11-27T12:39:09.258Z,2.10
2022-11-27T12:41:57.755Z,2.00
2022-11-27T12:45:06.226Z,1.90
2022-11-27T12:48:14.029Z,2.28
2022-11-27T12:51:24.034Z,2.45
2022-11-27T12:54:41.453Z,2.10
2022-11-27T12:57:41.267Z,1.90
2022-11-27T13:00:31.135Z,2.58
2022-11-27T13:03:28.598Z,2.10
2022-11-27T13:06:20.129Z,2.20
2022-11-27T13:09:12.928Z,2.42
2022-11-27T13:11:59.855Z,2.30
2022-11-27T13:14:57.942Z,2.38
2022-11-27T13:17:44.465Z,2.60
2022-11-27T13:20:36.085Z,3.07
2022-11-27T13:23:21.928Z,2.45
2022-11-27T13:26:24.865Z,2.97
2022-11-27T13:29:21.638Z,2.47
2022-11-27T13:32:08.836Z,3.10
2022-11-27T13:34:59.280Z,2.60
2022-11-27T13:37:49.508Z,2.75
2022-11-27T13:40:44.417Z,3.03
2022-11-27T13:43:47.613Z,3.30
2022-11-27T13:46:49.223Z,3.40
2022-11-27T13:49:37.948Z,3.05
2022-11-27T13:52:23.740Z,2.70
2022-11-27T13:55:09.919Z,2.58
2022-11-27T13:57:58.426Z,2.65
2022-11-27T14:00:45.606Z,3.13
2022-11-27T14:03:31.145Z,2.97
2022-11-27T14:06:30.474Z,2.70
2022-11-27T14:09:16.404Z,3.13
2022-11-27T14:12:22.324Z,2.80
2022-11-27T14:15:17.002Z,3.07
2022-11-27T14:18:29.933Z,2.80
2022-11-27T14:21:35.751Z,2.90
2022-11-27T14:24:33.490Z,3.28
2022-11-27T14:27:22.809Z,2.58
2022-11-27T14:30:21.959Z,3.17
2022-11-27T14:33:18.113Z,2.50
2022-11-27T14:36:06.791Z,2.97
2022-11-27T14:38:52.689Z,3.13
2022-11-27T14:41:38.187Z,2.92
2022-11-27T14:44:23.854Z,3.55
